Time;durP1;ratioP1;P1;durP2;ratioP2;P2;SDS_P1;SDS_P2;PMS_P1;PMS_P2;Temp;Humidity;BMP_temperature;BMP_pressure;BME280_temperature;BME280_humidity;BME280_pressure;Samples;Min_cycle;Max_cycle;Signal;HPM_P1;HPM_P2
2023/08/29 00:00:39;;;;;;;9.82;4.80;;;15.30;99.90;;;;;;5033507;28;20488;-58
2023/08/29 00:03:06;;;;;;;8.63;4.82;;;15.30;99.90;;;;;;5033466;28;20037;-54
2023/08/29 00:05:33;;;;;;;8.70;4.20;;;15.30;99.90;;;;;;5033340;28;20061;-57
2023/08/29 00:08:00;;;;;;;10.98;4.60;;;15.30;99.90;;;;;;5033399;28;20048;-58
2023/08/29 00:10:26;;;;;;;8.00;4.80;;;15.30;99.90;;;;;;5033320;28;20060;-59
2023/08/29 00:12:53;;;;;;;8.48;4.93;;;15.30;99.90;;;;;;5033180;28;20456;-55
2023/08/29 00:15:20;;;;;;;12.05;5.22;;;15.20;99.90;;;;;;5032164;28;20033;-58
2023/08/29 00:17:47;;;;;;;11.75;4.95;;;15.20;99.90;;;;;;5033384;28;20037;-57
2023/08/29 00:20:13;;;;;;;8.48;4.50;;;15.20;99.90;;;;;;5033679;28;20046;-58
2023/08/29 00:22:40;;;;;;;9.38;4.45;;;15.30;99.90;;;;;;5033397;28;20046;-53
2023/08/29 00:25:07;;;;;;;11.10;5.03;;;15.30;99.90;;;;;;5033166;28;20057;-59
2023/08/29 00:27:34;;;;;;;9.13;4.20;;;15.30;99.90;;;;;;5033100;28;20388;-55
2023/08/29 00:30:02;;;;;;;10.38;4.80;;;15.30;99.90;;;;;;5032129;28;20100;-59
2023/08/29 00:32:28;;;;;;;13.13;5.03;;;15.30;99.90;;;;;;5031996;28;20103;-58
2023/08/29 00:34:55;;;;;;;9.98;5.05;;;15.30;99.90;;;;;;5032084;28;20438;-56
2023/08/29 00:37:22;;;;;;;10.48;4.53;;;15.30;99.90;;;;;;5032755;28;20065;-55
2023/08/29 00:39:49;;;;;;;8.88;5.00;;;15.30;99.90;;;;;;5031726;28;20135;-56
2023/08/29 00:42:16;;;;;;;10.75;4.53;;;15.30;99.90;;;;;;5033319;28;20385;-56
2023/08/29 00:44:42;;;;;;;9.52;4.70;;;15.30;99.90;;;;;;5032899;28;20496;-55
2023/08/29 00:47:09;;;;;;;9.05;4.88;;;15.30;99.90;;;;;;5031782;28;20049;-55
2023/08/29 00:49:36;;;;;;;8.95;4.13;;;15.20;99.90;;;;;;5031388;28;20053;-57
2023/08/29 00:52:03;;;;;;;8.65;4.53;;;15.30;99.90;;;;;;5032625;28;20075;-56
2023/08/29 00:54:30;;;;;;;8.00;4.28;;;15.20;99.90;;;;;;5033060;28;20072;-57
2023/08/29 00:56:57;;;;;;;9.23;4.85;;;15.20;99.90;;;;;;5031325;28;20045;-60
2023/08/29 00:59:23;;;;;;;9.88;4.40;;;15.10;99.90;;;;;;5031321;28;20044;-57
2023/08/29 01:01:50;;;;;;;9.30;4.47;;;15.20;99.90;;;;;;5032598;28;20045;-55
2023/08/29 01:04:18;;;;;;;7.03;3.80;;;15.20;99.90;;;;;;5033090;28;20076;-54
2023/08/29 01:06:45;;;;;;;6.68;3.97;;;15.20;99.90;;;;;;5032526;28;20081;-54
2023/08/29 01:09:11;;;;;;;7.15;4.25;;;15.20;99.90;;;;;;5033087;28;20053;-55
2023/08/29 01:11:38;;;;;;;8.85;4.13;;;15.20;99.90;;;;;;5031272;28;20053;-58
2023/08/29 01:14:05;;;;;;;11.32;4.40;;;15.20;99.90;;;;;;5032671;28;20049;-58
2023/08/29 01:16:32;;;;;;;10.63;4.10;;;15.20;99.90;;;;;;5032806;28;20116;-57
2023/08/29 01:18:59;;;;;;;7.30;3.80;;;15.20;99.90;;;;;;5031556;28;20073;-54
2023/08/29 01:21:26;;;;;;;8.13;4.28;;;15.20;99.90;;;;;;5031390;28;20042;-54
2023/08/29 01:23:53;;;;;;;8.68;4.20;;;15.30;99.90;;;;;;5031266;28;20073;-57
2023/08/29 01:26:20;;;;;;;8.18;4.07;;;15.20;99.90;;;;;;5032836;28;20155;-59
2023/08/29 01:28:47;;;;;;;8.35;4.47;;;15.20;99.90;;;;;;5032835;28;20511;-59
2023/08/29 01:31:14;;;;;;;9.60;4.15;;;15.20;99.90;;;;;;5014765;28;20053;-58
2023/08/29 01:33:40;;;;;;;7.30;4.40;;;15.20;99.90;;;;;;5032202;28;20377;-56
2023/08/29 01:36:07;;;;;;;7.90;3.60;;;15.30;99.90;;;;;;5032318;28;20037;-53
2023/08/29 01:38:34;;;;;;;9.68;3.83;;;15.30;99.90;;;;;;5030950;28;20453;-54
2023/08/29 01:41:01;;;;;;;8.25;3.90;;;15.20;99.90;;;;;;5032745;28;20076;-54
2023/08/29 01:43:28;;;;;;;7.22;3.97;;;15.30;99.90;;;;;;5032012;28;20041;-55
2023/08/29 01:45:56;;;;;;;6.88;4.00;;;15.20;99.90;;;;;;5036115;28;20040;-53
2023/08/29 01:48:23;;;;;;;7.82;3.70;;;15.20;99.90;;;;;;5036099;28;20037;-55
2023/08/29 01:50:52;;;;;;;7.47;3.70;;;15.10;99.90;;;;;;5034564;28;20179;-56
2023/08/29 01:53:19;;;;;;;6.93;3.70;;;15.10;99.90;;;;;;5034641;28;20095;-56
2023/08/29 01:55:46;;;;;;;9.07;4.20;;;15.10;99.90;;;;;;5034640;28;20132;-57
2023/08/29 01:58:13;;;;;;;7.07;3.90;;;15.10;99.90;;;;;;5034494;28;20481;-56
2023/08/29 02:00:40;;;;;;;8.35;4.18;;;15.10;99.90;;;;;;5034421;28;20091;-52
2023/08/29 02:03:07;;;;;;;8.23;4.13;;;15.10;99.90;;;;;;5035753;28;20048;-55
2023/08/29 02:05:34;;;;;;;7.60;3.90;;;15.10;99.90;;;;;;5035946;28;20050;-56
2023/08/29 02:08:01;;;;;;;6.95;3.90;;;15.10;99.90;;;;;;5035396;28;20050;-55
2023/08/29 02:10:30;;;;;;;8.38;4.18;;;15.10;99.90;;;;;;5035939;28;20048;-53
2023/08/29 02:12:57;;;;;;;6.80;3.78;;;15.00;99.90;;;;;;5034203;28;20038;-53
2023/08/29 02:15:23;;;;;;;8.98;4.03;;;15.10;99.90;;;;;;5034182;28;20467;-55
2023/08/29 02:17:51;;;;;;;6.88;3.30;;;15.10;99.90;;;;;;5035173;28;20038;-59
2023/08/29 02:20:18;;;;;;;9.20;3.40;;;15.10;99.90;;;;;;5035404;28;20849;-58
2023/08/29 02:22:45;;;;;;;8.70;3.65;;;15.10;99.90;;;;;;5035232;28;20488;-54
2023/08/29 02:25:11;;;;;;;6.13;3.53;;;15.10;99.90;;;;;;5035416;28;20038;-58
2023/08/29 02:27:38;;;;;;;8.27;3.67;;;15.10;99.90;;;;;;5035193;28;20084;-55
2023/08/29 02:30:07;;;;;;;7.35;3.33;;;15.10;99.90;;;;;;5035473;28;20046;-56
2023/08/29 02:32:34;;;;;;;8.98;3.78;;;15.10;99.90;;;;;;5033870;28;20056;-57
2023/08/29 02:35:01;;;;;;;6.22;3.50;;;15.10;99.90;;;;;;5034804;28;20578;-56
2023/08/29 02:37:29;;;;;;;5.85;3.60;;;15.00;99.90;;;;;;5034978;28;20042;-54
2023/08/29 02:39:56;;;;;;;8.48;3.38;;;15.00;99.90;;;;;;5035056;28;20041;-56
2023/08/29 02:42:23;;;;;;;7.30;3.75;;;15.00;99.90;;;;;;5034949;28;20469;-57
2023/08/29 02:44:50;;;;;;;6.60;3.60;;;15.00;99.90;;;;;;5033737;28;20057;-57
2023/08/29 02:47:17;;;;;;;8.52;3.70;;;15.00;99.90;;;;;;5034816;28;20069;-60
2023/08/29 02:49:44;;;;;;;6.88;3.67;;;15.00;99.90;;;;;;5034995;28;20132;-55
2023/08/29 02:52:10;;;;;;;7.88;3.72;;;15.00;99.90;;;;;;5034713;28;20060;-58
2023/08/29 02:54:37;;;;;;;6.57;3.50;;;15.00;99.90;;;;;;5034393;28;20042;-56
2023/08/29 02:57:04;;;;;;;6.88;3.55;;;14.90;99.90;;;;;;5032842;28;20042;-50
2023/08/29 02:59:31;;;;;;;6.10;3.13;;;14.90;99.90;;;;;;5034724;28;20531;-53
2023/08/29 03:02:00;;;;;;;6.10;3.40;;;14.90;99.90;;;;;;5033200;28;20049;-56
2023/08/29 03:04:27;;;;;;;6.72;3.60;;;14.90;99.90;;;;;;5034733;28;20405;-55
2023/08/29 03:06:54;;;;;;;6.57;3.45;;;14.90;99.90;;;;;;5032964;28;20041;-54
2023/08/29 03:09:21;;;;;;;4.95;2.97;;;14.90;99.90;;;;;;5032836;28;20500;-56
2023/08/29 03:11:48;;;;;;;6.55;3.13;;;14.90;99.90;;;;;;5032883;28;20049;-53
2023/08/29 03:14:14;;;;;;;6.60;3.42;;;14.90;99.90;;;;;;5034098;28;20049;-58
2023/08/29 03:16:41;;;;;;;7.45;3.15;;;14.80;99.90;;;;;;5032893;28;20045;-57
2023/08/29 03:19:08;;;;;;;7.70;3.50;;;14.90;99.90;;;;;;5033078;28;20111;-55
2023/08/29 03:21:35;;;;;;;3.90;2.75;;;14.90;99.90;;;;;;5034024;28;20029;-57
2023/08/29 03:24:02;;;;;;;7.60;3.17;;;14.80;99.90;;;;;;5034389;28;20034;-55
2023/08/29 03:26:29;;;;;;;6.65;3.25;;;14.90;99.90;;;;;;5032955;28;20139;-55
2023/08/29 03:28:55;;;;;;;6.85;3.20;;;14.90;99.90;;;;;;5034071;28;20037;-56
2023/08/29 03:31:22;;;;;;;5.57;2.85;;;14.90;99.90;;;;;;5034104;28;20041;-57
2023/08/29 03:33:49;;;;;;;5.45;2.85;;;14.90;99.90;;;;;;5033847;28;20404;-57
2023/08/29 03:36:16;;;;;;;5.10;2.97;;;14.90;99.90;;;;;;5032244;28;20393;-56
2023/08/29 03:38:43;;;;;;;4.95;2.75;;;14.90;99.90;;;;;;5032704;28;20119;-54
2023/08/29 03:41:10;;;;;;;5.72;2.95;;;14.90;99.90;;;;;;5032676;28;20045;-53
2023/08/29 03:43:37;;;;;;;8.95;2.92;;;14.90;99.90;;;;;;5033506;28;20405;-58
2023/08/29 03:46:04;;;;;;;7.50;3.00;;;14.90;99.90;;;;;;5033694;28;20052;-54
2023/08/29 03:48:31;;;;;;;8.43;2.95;;;14.90;99.90;;;;;;5033855;28;20041;-56
2023/08/29 03:50:58;;;;;;;8.07;2.60;;;15.00;99.90;;;;;;5033560;28;20060;-58
2023/08/29 03:53:25;;;;;;;7.05;3.03;;;14.90;99.90;;;;;;5032350;28;20041;-55
2023/08/29 03:55:52;;;;;;;6.05;2.80;;;15.00;99.90;;;;;;5032418;28;20457;-55
2023/08/29 03:58:19;;;;;;;7.07;2.95;;;15.00;99.90;;;;;;5031881;28;20049;-58
2023/08/29 04:00:45;;;;;;;6.53;2.45;;;15.00;99.90;;;;;;5033401;28;20132;-57
2023/08/29 04:03:12;;;;;;;7.43;3.10;;;15.00;99.90;;;;;;5032252;28;20053;-51
2023/08/29 04:05:39;;;;;;;6.50;2.88;;;15.00;99.90;;;;;;5033666;28;20038;-56
2023/08/29 04:08:07;;;;;;;3.78;2.70;;;15.00;99.90;;;;;;5031675;28;20069;-58
2023/08/29 04:10:34;;;;;;;7.35;3.10;;;15.00;99.90;;;;;;5033197;28;20053;-51
2023/08/29 04:13:02;;;;;;;4.38;2.35;;;15.00;99.90;;;;;;5032940;28;20087;-57
2023/08/29 04:15:29;;;;;;;9.32;3.03;;;15.00;99.90;;;;;;5015681;28;20061;-57
2023/08/29 04:17:55;;;;;;;6.25;3.17;;;15.00;99.90;;;;;;5031716;28;20057;-59
2023/08/29 04:20:23;;;;;;;6.38;3.17;;;15.10;99.90;;;;;;5033371;28;20509;-56
2023/08/29 04:22:51;;;;;;;7.00;2.75;;;15.10;99.90;;;;;;5031490;28;20050;-53
2023/08/29 04:25:18;;;;;;;6.75;2.70;;;15.00;99.90;;;;;;5032053;28;20052;-55
2023/08/29 04:27:46;;;;;;;6.30;2.85;;;15.00;99.90;;;;;;5033024;28;20124;-55
2023/08/29 04:30:13;;;;;;;4.85;2.45;;;15.10;99.90;;;;;;5031610;28;20515;-55
2023/08/29 04:32:40;;;;;;;5.05;2.50;;;15.00;99.90;;;;;;5031427;28;20044;-58
2023/08/29 04:35:06;;;;;;;5.75;2.80;;;15.00;99.90;;;;;;5033392;28;20048;-54
2023/08/29 04:37:33;;;;;;;8.80;2.72;;;15.00;99.90;;;;;;5032852;28;20044;-56
2023/08/29 04:40:00;;;;;;;6.45;2.83;;;15.00;99.90;;;;;;5033010;28;20445;-54
2023/08/29 04:42:27;;;;;;;6.72;2.72;;;15.00;99.90;;;;;;5032989;28;20041;-57
2023/08/29 04:44:55;;;;;;;6.43;2.80;;;15.00;99.90;;;;;;5031772;28;20183;-58
2023/08/29 04:47:22;;;;;;;4.68;2.53;;;15.00;99.90;;;;;;5031185;28;20045;-56
2023/08/29 04:49:49;;;;;;;5.07;2.88;;;14.90;99.90;;;;;;5031595;28;20567;-53
2023/08/29 04:52:16;;;;;;;5.07;2.65;;;14.90;99.90;;;;;;5030982;28;20049;-56
2023/08/29 04:54:43;;;;;;;6.20;2.58;;;14.90;99.90;;;;;;5032973;28;20430;-57
2023/08/29 04:57:10;;;;;;;4.72;2.45;;;15.00;99.90;;;;;;5032445;28;20033;-54
2023/08/29 04:59:36;;;;;;;4.32;2.50;;;15.00;99.90;;;;;;5031523;28;20048;-56
2023/08/29 05:02:04;;;;;;;5.43;2.40;;;14.90;99.90;;;;;;5031760;28;20037;-55
2023/08/29 05:04:30;;;;;;;7.50;3.00;;;15.00;99.90;;;;;;5031549;28;20048;-54
2023/08/29 05:06:57;;;;;;;5.97;2.60;;;14.90;99.90;;;;;;5032747;28;20396;-54
2023/08/29 05:09:24;;;;;;;5.32;2.60;;;14.90;99.90;;;;;;5031599;28;20050;-54
2023/08/29 05:11:51;;;;;;;4.32;2.45;;;15.00;99.90;;;;;;5031409;28;20404;-52
2023/08/29 05:14:18;;;;;;;6.28;2.40;;;15.00;99.90;;;;;;5031616;28;20147;-55
2023/08/29 05:16:45;;;;;;;7.82;3.00;;;15.00;99.90;;;;;;5030984;28;20045;-55
2023/08/29 05:19:12;;;;;;;8.80;2.80;;;15.00;99.90;;;;;;5033165;28;20075;-57
2023/08/29 05:21:38;;;;;;;6.95;2.53;;;15.00;99.90;;;;;;5035510;28;20457;-60
2023/08/29 05:24:09;;;;;;;5.80;2.75;;;15.00;99.90;;;;;;5034972;28;20053;-54
2023/08/29 05:26:35;;;;;;;8.35;2.45;;;15.00;99.90;;;;;;5036169;28;20077;-56
2023/08/29 05:29:02;;;;;;;5.82;2.45;;;15.00;99.90;;;;;;5036700;28;20050;-53
2023/08/29 05:31:29;;;;;;;4.35;2.60;;;15.10;99.90;;;;;;5036256;28;20041;-59
2023/08/29 05:33:56;;;;;;;5.72;2.85;;;15.10;99.90;;;;;;5035997;28;20042;-56
2023/08/29 05:36:26;;;;;;;5.72;2.70;;;15.10;99.90;;;;;;5037742;28;20481;-55
2023/08/29 05:38:58;;;;;;;5.15;2.50;;;15.10;99.90;;;;;;5035856;28;20037;-58
2023/08/29 05:41:27;;;;;;;4.68;2.47;;;15.10;99.90;;;;;;5035984;28;20063;-59
2023/08/29 05:43:53;;;;;;;5.28;2.35;;;15.10;99.90;;;;;;5035977;28;20037;-58
2023/08/29 05:46:20;;;;;;;5.30;2.20;;;15.20;99.90;;;;;;5036005;28;20045;-55
2023/08/29 05:48:47;;;;;;;4.75;2.50;;;15.20;99.90;;;;;;5035144;28;20052;-53
2023/08/29 05:51:14;;;;;;;7.78;2.33;;;15.20;99.90;;;;;;5035999;28;20054;-58
2023/08/29 05:53:40;;;;;;;6.25;2.55;;;15.20;99.90;;;;;;5036137;28;20096;-57
2023/08/29 05:56:07;;;;;;;7.63;2.78;;;15.20;99.90;;;;;;5035954;28;20042;-54
2023/08/29 05:58:34;;;;;;;8.73;2.60;;;15.30;99.90;;;;;;5035867;28;20038;-55
2023/08/29 06:01:02;;;;;;;4.63;2.38;;;15.30;99.90;;;;;;5035984;28;20457;-60
2023/08/29 06:03:28;;;;;;;5.72;2.80;;;15.40;99.90;;;;;;5036135;28;20038;-57
2023/08/29 06:05:55;;;;;;;6.38;2.83;;;15.40;99.90;;;;;;5035797;28;20118;-58
2023/08/29 06:08:22;;;;;;;7.40;2.80;;;15.40;99.90;;;;;;5035744;28;20037;-56
2023/08/29 06:10:49;;;;;;;7.75;2.80;;;15.50;99.90;;;;;;5035912;28;20038;-57
2023/08/29 06:13:16;;;;;;;6.78;2.78;;;15.50;99.90;;;;;;5035575;28;20042;-57
2023/08/29 06:15:43;;;;;;;6.80;2.63;;;15.60;99.90;;;;;;5035377;28;20049;-53
2023/08/29 06:18:10;;;;;;;7.70;2.45;;;15.50;99.90;;;;;;5035129;28;20038;-56
2023/08/29 06:20:37;;;;;;;5.00;2.47;;;15.60;99.90;;;;;;5035805;28;20038;-56
2023/08/29 06:23:04;;;;;;;6.30;2.75;;;15.70;99.90;;;;;;5035548;28;20045;-53
2023/08/29 06:25:31;;;;;;;7.63;2.67;;;15.70;99.90;;;;;;5035587;28;20120;-54
2023/08/29 06:27:57;;;;;;;4.38;2.58;;;15.70;99.90;;;;;;5035218;28;20037;-55
2023/08/29 06:30:24;;;;;;;5.45;2.20;;;15.80;99.90;;;;;;5035106;28;20120;-53
2023/08/29 06:32:51;;;;;;;5.32;2.42;;;15.80;99.90;;;;;;5035184;28;20049;-57
2023/08/29 06:35:18;;;;;;;5.82;2.40;;;15.80;99.90;;;;;;5035521;28;20079;-57
2023/08/29 06:37:45;;;;;;;7.00;2.40;;;15.90;99.90;;;;;;5035028;28;20046;-57
2023/08/29 06:40:12;;;;;;;6.13;2.60;;;15.90;99.90;;;;;;5035271;28;20049;-57
2023/08/29 06:42:38;;;;;;;6.13;2.80;;;15.90;99.90;;;;;;5035306;28;20048;-59
2023/08/29 06:45:05;;;;;;;5.30;2.60;;;15.90;99.90;;;;;;5033870;28;20042;-58
2023/08/29 06:47:32;;;;;;;6.10;2.50;;;16.00;99.90;;;;;;5035315;28;20448;-56
2023/08/29 06:49:59;;;;;;;4.22;2.40;;;16.00;99.90;;;;;;5035352;28;20469;-58
2023/08/29 06:52:26;;;;;;;5.85;2.72;;;16.10;99.90;;;;;;5034448;28;20046;-54
2023/08/29 06:54:52;;;;;;;5.15;2.90;;;16.10;99.90;;;;;;5034856;28;20033;-58
2023/08/29 06:57:19;;;;;;;6.63;2.47;;;16.10;99.90;;;;;;5034450;28;20037;-52
2023/08/29 06:59:46;;;;;;;3.45;2.20;;;16.20;99.90;;;;;;5034419;28;20033;-59
2023/08/29 07:02:13;;;;;;;6.93;2.60;;;16.20;99.90;;;;;;5034785;28;20034;-54
2023/08/29 07:04:40;;;;;;;7.03;2.63;;;16.20;99.90;;;;;;5034887;28;20037;-59
2023/08/29 07:07:06;;;;;;;5.47;2.40;;;16.20;99.90;;;;;;5033144;28;20057;-59
2023/08/29 07:09:33;;;;;;;6.25;3.13;;;16.20;99.90;;;;;;5033110;28;20476;-56
2023/08/29 07:12:00;;;;;;;5.22;2.45;;;16.30;99.90;;;;;;5034223;28;20405;-57
2023/08/29 07:14:27;;;;;;;4.80;2.70;;;16.30;99.90;;;;;;5034182;28;20061;-58
2023/08/29 07:16:53;;;;;;;4.88;2.40;;;16.40;99.90;;;;;;5034354;28;20042;-57
2023/08/29 07:19:36;;;;;;;5.57;2.40;;;16.50;99.90;;;;;;5034713;28;20092;-54
2023/08/29 07:22:02;;;;;;;7.05;3.50;;;16.50;99.90;;;;;;5034221;28;20453;-55
2023/08/29 07:24:48;;;;;;;8.07;2.60;;;16.60;99.90;;;;;;5034389;28;20046;-58
2023/08/29 07:27:15;;;;;;;7.57;2.50;;;16.60;99.90;;;;;;5034321;28;20045;-56
2023/08/29 07:29:42;;;;;;;6.80;2.60;;;16.60;99.90;;;;;;5034269;28;20041;-57
2023/08/29 07:32:09;;;;;;;5.50;2.63;;;16.70;99.90;;;;;;5033689;28;20128;-55
2023/08/29 07:34:39;;;;;;;6.70;2.65;;;16.70;99.90;;;;;;5033623;28;20396;-58
2023/08/29 07:37:07;;;;;;;6.22;2.58;;;16.80;99.90;;;;;;5033667;28;20052;-58
2023/08/29 07:39:34;;;;;;;9.13;2.60;;;16.80;99.90;;;;;;5034104;28;20045;-58
2023/08/29 07:42:01;;;;;;;5.38;2.47;;;16.80;99.90;;;;;;5033635;28;20038;-59
2023/08/29 07:44:29;;;;;;;4.70;2.40;;;16.80;99.90;;;;;;5033844;28;20056;-58
2023/08/29 07:46:56;;;;;;;6.63;2.47;;;17.00;99.90;;;;;;5033481;28;20046;-58
2023/08/29 07:49:40;;;;;;;5.65;2.70;;;17.10;99.90;;;;;;5034040;28;20033;-55
2023/08/29 07:52:06;;;;;;;9.90;3.05;;;17.10;99.90;;;;;;5033354;28;20049;-53
2023/08/29 07:54:33;;;;;;;4.72;2.47;;;17.20;99.90;;;;;;5033746;28;20043;-58
2023/08/29 07:57:00;;;;;;;4.15;2.50;;;17.40;99.90;;;;;;5033376;28;20038;-53
2023/08/29 07:59:27;;;;;;;4.85;2.05;;;17.50;99.90;;;;;;5033213;28;20049;-55
2023/08/29 08:01:54;;;;;;;6.13;2.28;;;17.50;99.90;;;;;;5033783;28;20128;-54
2023/08/29 08:04:21;;;;;;;6.40;2.30;;;17.60;99.90;;;;;;5033563;28;20045;-56
2023/08/29 08:06:48;;;;;;;8.38;2.45;;;17.70;99.90;;;;;;5033298;28;20042;-56
2023/08/29 08:09:15;;;;;;;5.28;2.53;;;17.70;99.90;;;;;;5032494;28;20037;-57
2023/08/29 08:11:42;;;;;;;5.38;2.67;;;17.80;99.90;;;;;;5022680;28;20400;-55
2023/08/29 08:14:09;;;;;;;8.25;2.55;;;17.80;99.90;;;;;;5032721;28;20049;-56
2023/08/29 08:16:35;;;;;;;6.32;2.53;;;17.90;99.90;;;;;;5031410;28;20052;-53
2023/08/29 08:19:04;;;;;;;6.93;2.60;;;18.00;99.90;;;;;;5032781;28;20940;-51
2023/08/29 08:21:30;;;;;;;7.57;2.35;;;18.00;99.90;;;;;;5027484;28;20056;-56
2023/08/29 08:23:57;;;;;;;7.88;2.00;;;18.10;99.90;;;;;;5033047;28;20041;-48
2023/08/29 08:26:24;;;;;;;7.10;2.47;;;18.10;99.90;;;;;;5031922;28;20488;-57
2023/08/29 08:28:52;;;;;;;5.80;2.38;;;18.20;99.90;;;;;;5032944;28;20053;-55
2023/08/29 08:31:19;;;;;;;8.32;2.42;;;18.20;99.90;;;;;;5031362;28;20059;-58
2023/08/29 08:33:45;;;;;;;4.60;1.98;;;18.30;99.90;;;;;;5031551;28;20116;-57
2023/08/29 08:36:12;;;;;;;4.65;2.10;;;18.40;99.90;;;;;;5036857;28;20037;-56
2023/08/29 08:38:39;;;;;;;8.57;2.25;;;18.50;99.90;;;;;;5032605;28;20091;-56
2023/08/29 08:41:06;;;;;;;6.10;2.10;;;18.60;99.90;;;;;;5031807;28;20128;-55
2023/08/29 08:43:33;;;;;;;7.57;2.30;;;18.60;99.90;;;;;;5032675;28;20052;-55
2023/08/29 08:45:59;;;;;;;7.68;2.13;;;18.70;99.90;;;;;;5029051;28;20045;-56
2023/08/29 08:48:26;;;;;;;9.00;2.60;;;18.70;99.90;;;;;;5031059;28;20128;-55
2023/08/29 08:50:53;;;;;;;6.45;2.20;;;18.70;99.90;;;;;;5028977;28;20048;-55
2023/08/29 08:53:20;;;;;;;9.05;2.20;;;18.80;99.90;;;;;;5032791;28;20041;-55
2023/08/29 08:55:47;;;;;;;5.15;2.13;;;18.80;99.90;;;;;;5036095;28;20072;-56
2023/08/29 08:58:14;;;;;;;4.25;2.08;;;19.00;99.90;;;;;;5035521;28;20045;-53
2023/08/29 09:00:41;;;;;;;4.72;2.20;;;19.00;99.90;;;;;;5036150;28;20033;-55
2023/08/29 09:03:08;;;;;;;7.40;2.25;;;19.10;99.90;;;;;;5031810;28;20116;-56
2023/08/29 09:05:35;;;;;;;4.95;2.25;;;19.20;99.90;;;;;;5036181;28;20476;-51
2023/08/29 09:08:01;;;;;;;3.55;1.80;;;19.30;99.90;;;;;;5035872;28;20045;-51
2023/08/29 09:10:28;;;;;;;4.18;2.00;;;19.30;99.90;;;;;;5035762;28;20095;-51
2023/08/29 09:12:56;;;;;;;6.82;2.33;;;19.40;99.90;;;;;;5035542;28;20055;-53
2023/08/29 09:15:23;;;;;;;4.45;2.08;;;19.40;99.90;;;;;;5035197;28;20076;-55
2023/08/29 09:17:50;;;;;;;6.07;2.45;;;19.40;99.90;;;;;;5033489;28;20129;-58
2023/08/29 09:20:17;;;;;;;5.80;1.92;;;19.40;99.90;;;;;;5035783;28;20049;-57
2023/08/29 09:22:44;;;;;;;3.50;1.55;;;19.40;99.90;;;;;;5035619;28;20372;-55
2023/08/29 09:25:11;;;;;;;6.97;1.77;;;19.50;99.90;;;;;;5029457;28;20041;-50
2023/08/29 09:27:39;;;;;;;4.60;2.00;;;19.50;99.40;;;;;;5027154;28;20095;-57
2023/08/29 09:30:06;;;;;;;4.65;1.80;;;19.60;99.30;;;;;;5035682;28;20050;-52
2023/08/29 09:32:33;;;;;;;6.68;1.90;;;19.70;99.70;;;;;;5033546;28;20042;-59
2023/08/29 09:35:00;;;;;;;7.60;2.00;;;19.80;99.70;;;;;;5035371;28;20483;-57
2023/08/29 09:37:27;;;;;;;5.10;2.00;;;19.90;99.40;;;;;;5035640;28;20036;-55
2023/08/29 09:39:54;;;;;;;4.78;1.63;;;19.90;99.50;;;;;;5029125;28;20460;-56
2023/08/29 09:42:21;;;;;;;4.20;1.98;;;19.90;98.90;;;;;;5034186;28;20041;-55
2023/08/29 09:44:48;;;;;;;5.30;1.50;;;19.90;99.20;;;;;;5031253;28;20041;-58
2023/08/29 09:47:15;;;;;;;3.10;1.50;;;19.90;97.80;;;;;;5034675;28;20141;-58
2023/08/29 09:49:48;;;;;;;4.80;1.70;;;20.00;98.00;;;;;;5034380;28;20049;-58
2023/08/29 09:52:15;;;;;;;3.38;1.65;;;20.10;97.70;;;;;;5034171;28;20124;-58
2023/08/29 09:54:42;;;;;;;5.40;1.55;;;20.20;98.20;;;;;;5033477;28;20092;-58
2023/08/29 09:57:08;;;;;;;4.55;2.17;;;20.30;97.40;;;;;;5033569;28;20041;-60
2023/08/29 09:59:35;;;;;;;4.00;1.88;;;20.40;98.40;;;;;;5033881;28;20087;-59
2023/08/29 10:02:03;;;;;;;4.55;1.40;;;20.50;98.10;;;;;;5033727;28;20036;-58
2023/08/29 10:04:30;;;;;;;4.07;1.35;;;20.50;97.20;;;;;;5033212;28;20049;-51
2023/08/29 10:06:57;;;;;;;5.32;1.45;;;20.60;97.50;;;;;;5034005;28;20073;-53
2023/08/29 10:09:25;;;;;;;3.03;1.40;;;20.60;96.90;;;;;;5032044;28;20430;-56
2023/08/29 10:11:52;;;;;;;2.88;1.50;;;20.70;96.40;;;;;;5027597;28;20146;-53
2023/08/29 10:14:21;;;;;;;3.03;1.60;;;20.70;95.60;;;;;;5033430;28;20049;-58
2023/08/29 10:16:48;;;;;;;5.38;1.55;;;20.80;95.30;;;;;;5033319;28;20132;-54
2023/08/29 10:19:14;;;;;;;4.45;1.73;;;20.90;95.00;;;;;;5033059;28;20042;-54
2023/08/29 10:21:45;;;;;;;4.43;1.50;;;21.00;94.90;;;;;;5033107;28;20084;-58
2023/08/29 10:24:12;;;;;;;2.97;1.48;;;20.90;93.70;;;;;;5033234;28;20033;-56
2023/08/29 10:26:39;;;;;;;3.80;1.52;;;20.90;94.40;;;;;;5033029;28;20048;-59
2023/08/29 10:29:05;;;;;;;3.53;1.35;;;21.00;95.10;;;;;;5031859;28;20096;-57
2023/08/29 10:31:32;;;;;;;3.78;1.42;;;21.00;94.70;;;;;;5033489;28;20041;-58
2023/08/29 10:33:59;;;;;;;3.33;1.45;;;21.00;95.00;;;;;;5032812;28;20033;-60
2023/08/29 10:36:26;;;;;;;4.07;1.75;;;21.00;94.50;;;;;;5032769;28;20038;-52
2023/08/29 10:38:53;;;;;;;3.00;1.50;;;20.80;94.30;;;;;;5032914;28;20477;-56
2023/08/29 10:41:20;;;;;;;3.50;1.50;;;20.70;94.30;;;;;;5031775;28;20450;-53
2023/08/29 10:43:49;;;;;;;2.95;1.30;;;20.70;94.60;;;;;;5026519;28;20049;-57
2023/08/29 10:46:16;;;;;;;2.90;1.63;;;20.70;94.00;;;;;;5027346;28;20484;-58
2023/08/29 10:48:43;;;;;;;4.82;1.65;;;20.70;93.20;;;;;;5033408;28;20107;-53
2023/08/29 10:51:10;;;;;;;6.32;1.90;;;20.70;93.70;;;;;;4993916;28;1144018;-59
2023/08/29 10:53:38;;;;;;;3.30;1.80;;;20.70;93.60;;;;;;5027983;28;20088;-56
2023/08/29 10:56:05;;;;;;;3.72;2.00;;;20.80;93.50;;;;;;5027904;28;20076;-58
2023/08/29 10:58:32;;;;;;;5.13;1.98;;;20.80;93.20;;;;;;5027985;28;20408;-57
2023/08/29 11:00:59;;;;;;;2.97;1.85;;;20.80;93.60;;;;;;5028014;28;20052;-54
2023/08/29 11:03:25;;;;;;;5.20;1.90;;;20.90;93.60;;;;;;5027549;28;20045;-54
2023/08/29 11:05:52;;;;;;;3.67;1.75;;;20.90;92.80;;;;;;5034666;28;20423;-56
2023/08/29 11:08:22;;;;;;;6.15;1.80;;;21.00;92.50;;;;;;5034012;28;20103;-58
2023/08/29 11:10:49;;;;;;;5.35;2.20;;;21.00;92.40;;;;;;5033444;28;20037;-53
2023/08/29 11:13:17;;;;;;;4.20;2.08;;;21.00;92.60;;;;;;5034322;28;20037;-57
2023/08/29 11:15:44;;;;;;;2.58;1.90;;;21.10;92.40;;;;;;5026122;28;20040;-54
2023/08/29 11:18:11;;;;;;;4.63;1.95;;;21.10;92.10;;;;;;5033652;28;20081;-53
2023/08/29 11:20:38;;;;;;;4.03;1.98;;;21.10;92.10;;;;;;5034219;28;20069;-57
2023/08/29 11:23:05;;;;;;;3.58;2.15;;;21.20;91.20;;;;;;5033097;28;20485;-60
2023/08/29 11:25:32;;;;;;;4.00;2.05;;;21.30;90.60;;;;;;5032571;28;20575;-59
2023/08/29 11:28:00;;;;;;;3.15;1.48;;;21.40;92.10;;;;;;5032507;28;20456;-53
2023/08/29 11:30:26;;;;;;;3.58;1.90;;;21.40;91.60;;;;;;5033378;28;20067;-52
2023/08/29 11:33:09;;;;;;;2.90;1.90;;;21.40;92.90;;;;;;5030393;28;20132;-55
2023/08/29 11:35:35;;;;;;;4.20;2.33;;;21.50;91.10;;;;;;5031988;28;20088;-57
2023/08/29 11:38:04;;;;;;;2.70;1.80;;;21.40;91.40;;;;;;5031885;28;20041;-58
2023/08/29 11:40:31;;;;;;;4.43;1.70;;;21.40;91.30;;;;;;5033110;28;20045;-56
2023/08/29 11:43:18;;;;;;;3.00;1.77;;;21.50;91.70;;;;;;5029357;28;20135;-55
2023/08/29 11:46:06;;;;;;;2.55;1.42;;;21.60;91.70;;;;;;5032185;28;20096;-53
2023/08/29 11:48:33;;;;;;;4.25;1.98;;;21.70;92.10;;;;;;5033059;28;20136;-54
2023/08/29 11:51:00;;;;;;;2.83;1.73;;;21.70;92.00;;;;;;5033419;28;20057;-57
2023/08/29 11:53:27;;;;;;;3.22;1.58;;;21.90;92.40;;;;;;5032147;28;20054;-56
2023/08/29 11:55:54;;;;;;;3.72;1.90;;;22.00;91.30;;;;;;5033257;28;20113;-53
2023/08/29 11:58:21;;;;;;;3.45;1.60;;;22.00;91.00;;;;;;5033040;28;20080;-59
2023/08/29 12:00:48;;;;;;;5.38;2.00;;;22.00;90.30;;;;;;5032647;28;20473;-56
2023/08/29 12:03:16;;;;;;;4.68;2.05;;;22.00;90.80;;;;;;5032939;28;20519;-57
2023/08/29 12:05:43;;;;;;;2.92;1.88;;;22.10;90.50;;;;;;5032230;28;20064;-56
2023/08/29 12:08:10;;;;;;;3.75;1.95;;;22.20;89.20;;;;;;5032769;28;20046;-58
2023/08/29 12:10:36;;;;;;;3.25;1.83;;;22.30;89.60;;;;;;5032042;28;20060;-54
2023/08/29 12:13:03;;;;;;;3.70;1.92;;;22.20;90.00;;;;;;5032865;28;20048;-54
2023/08/29 12:15:30;;;;;;;5.15;2.13;;;22.20;90.30;;;;;;5031890;28;20042;-53
2023/08/29 12:18:03;;;;;;;3.35;2.35;;;22.10;90.20;;;;;;5033008;28;20099;-53
2023/08/29 12:20:32;;;;;;;3.53;2.25;;;22.00;90.70;;;;;;5032115;28;20040;-57
2023/08/29 12:22:59;;;;;;;3.50;1.98;;;22.10;90.30;;;;;;5033280;28;20389;-54
2023/08/29 12:25:26;;;;;;;4.03;2.10;;;22.20;90.60;;;;;;5032271;28;20053;-58
2023/08/29 12:27:53;;;;;;;3.60;2.00;;;22.20;89.80;;;;;;5032442;28;20046;-55
2023/08/29 12:30:20;;;;;;;3.08;2.08;;;22.20;90.00;;;;;;5032137;28;20141;-54
2023/08/29 12:32:47;;;;;;;2.88;2.03;;;22.20;89.00;;;;;;5032640;28;20052;-57
2023/08/29 12:35:14;;;;;;;3.17;1.88;;;22.10;88.70;;;;;;5031837;28;20041;-56
2023/08/29 12:37:41;;;;;;;2.50;1.98;;;22.10;90.10;;;;;;5032440;28;20034;-58
2023/08/29 12:40:08;;;;;;;4.43;2.10;;;22.20;90.20;;;;;;5031921;28;20035;-50
2023/08/29 12:42:36;;;;;;;4.07;2.15;;;22.30;90.20;;;;;;5032740;28;20036;-58
2023/08/29 12:45:04;;;;;;;2.78;1.80;;;22.30;90.30;;;;;;5031872;28;20041;-58